sensor_id;sensor_type;location;lat;lon;timestamp;temperature;humidity
27266;DHT22;14766;51.380;13.762;2023-12-04T00:01:50;0.90;66.60
27266;DHT22;14766;51.380;13.762;2023-12-04T00:04:17;0.90;66.60
27266;DHT22;14766;51.380;13.762;2023-12-04T00:06:45;0.80;66.50
27266;DHT22;14766;51.380;13.762;2023-12-04T00:09:12;0.80;66.50
27266;DHT22;14766;51.380;13.762;2023-12-04T00:11:39;0.80;66.60
27266;DHT22;14766;51.380;13.762;2023-12-04T00:14:07;0.70;67.50
27266;DHT22;14766;51.380;13.762;2023-12-04T00:16:35;0.70;66.50
27266;DHT22;14766;51.380;13.762;2023-12-04T00:19:06;0.70;66.30
27266;DHT22;14766;51.380;13.762;2023-12-04T00:21:33;0.70;66.20
27266;DHT22;14766;51.380;13.762;2023-12-04T00:24:01;0.70;66.30
27266;DHT22;14766;51.380;13.762;2023-12-04T00:26:28;0.60;66.40
27266;DHT22;14766;51.380;13.762;2023-12-04T00:28:57;0.60;66.40
27266;DHT22;14766;51.380;13.762;2023-12-04T00:31:24;0.60;66.30
27266;DHT22;14766;51.380;13.762;2023-12-04T00:33:51;0.50;66.20
27266;DHT22;14766;51.380;13.762;2023-12-04T00:36:18;0.50;66.30
27266;DHT22;14766;51.380;13.762;2023-12-04T00:38:46;0.60;66.40
27266;DHT22;14766;51.380;13.762;2023-12-04T00:41:14;0.50;66.40
27266;DHT22;14766;51.380;13.762;2023-12-04T00:43:41;0.50;66.40
27266;DHT22;14766;51.380;13.762;2023-12-04T00:46:08;0.50;66.20
27266;DHT22;14766;51.380;13.762;2023-12-04T00:48:35;0.40;66.20
27266;DHT22;14766;51.380;13.762;2023-12-04T00:51:03;0.40;66.10
27266;DHT22;14766;51.380;13.762;2023-12-04T00:53:30;0.40;66.20
27266;DHT22;14766;51.380;13.762;2023-12-04T00:55:57;0.40;66.30
27266;DHT22;14766;51.380;13.762;2023-12-04T00:58:24;0.30;66.50
27266;DHT22;14766;51.380;13.762;2023-12-04T01:00:51;0.30;66.60
27266;DHT22;14766;51.380;13.762;2023-12-04T01:03:19;0.30;66.70
27266;DHT22;14766;51.380;13.762;2023-12-04T01:05:46;0.30;66.60
27266;DHT22;14766;51.380;13.762;2023-12-04T01:08:13;0.30;66.50
27266;DHT22;14766;51.380;13.762;2023-12-04T01:10:41;0.30;66.40
27266;DHT22;14766;51.380;13.762;2023-12-04T01:13:10;0.30;66.50
27266;DHT22;14766;51.380;13.762;2023-12-04T01:15:37;0.20;66.30
27266;DHT22;14766;51.380;13.762;2023-12-04T01:18:06;0.30;66.40
27266;DHT22;14766;51.380;13.762;2023-12-04T01:20:33;0.30;66.60
27266;DHT22;14766;51.380;13.762;2023-12-04T01:23:00;0.30;66.60
27266;DHT22;14766;51.380;13.762;2023-12-04T01:25:28;0.30;66.80
27266;DHT22;14766;51.380;13.762;2023-12-04T01:27:55;0.30;66.80
27266;DHT22;14766;51.380;13.762;2023-12-04T01:30:22;0.30;66.80
27266;DHT22;14766;51.380;13.762;2023-12-04T01:32:49;0.30;66.70
27266;DHT22;14766;51.380;13.762;2023-12-04T01:35:17;0.30;66.40
27266;DHT22;14766;51.380;13.762;2023-12-04T01:37:44;0.30;66.20
27266;DHT22;14766;51.380;13.762;2023-12-04T01:40:11;0.30;66.10
27266;DHT22;14766;51.380;13.762;2023-12-04T01:42:38;0.20;66.00
27266;DHT22;14766;51.380;13.762;2023-12-04T01:45:06;0.30;66.20
27266;DHT22;14766;51.380;13.762;2023-12-04T01:47:34;0.20;66.30
27266;DHT22;14766;51.380;13.762;2023-12-04T01:50:01;0.20;66.20
27266;DHT22;14766;51.380;13.762;2023-12-04T01:52:29;0.20;66.60
27266;DHT22;14766;51.380;13.762;2023-12-04T01:54:56;0.20;66.30
27266;DHT22;14766;51.380;13.762;2023-12-04T01:57:23;0.20;66.20
27266;DHT22;14766;51.380;13.762;2023-12-04T01:59:50;0.10;66.10
27266;DHT22;14766;51.380;13.762;2023-12-04T02:02:17;0.20;65.80
27266;DHT22;14766;51.380;13.762;2023-12-04T02:04:45;0.10;65.60
27266;DHT22;14766;51.380;13.762;2023-12-04T02:07:12;0.10;65.60
27266;DHT22;14766;51.380;13.762;2023-12-04T02:09:39;0.10;65.60
27266;DHT22;14766;51.380;13.762;2023-12-04T02:12:06;0.10;65.60
27266;DHT22;14766;51.380;13.762;2023-12-04T02:14:34;0.10;65.70
27266;DHT22;14766;51.380;13.762;2023-12-04T02:17:05;0.00;65.60
27266;DHT22;14766;51.380;13.762;2023-12-04T02:19:32;0.00;65.40
27266;DHT22;14766;51.380;13.762;2023-12-04T02:21:59;0.00;65.20
27266;DHT22;14766;51.380;13.762;2023-12-04T02:24:27;0.00;65.30
27266;DHT22;14766;51.380;13.762;2023-12-04T02:27:18;0.00;65.30
27266;DHT22;14766;51.380;13.762;2023-12-04T02:29:53;0.00;65.40
27266;DHT22;14766;51.380;13.762;2023-12-04T02:32:25;-0.10;65.30
27266;DHT22;14766;51.380;13.762;2023-12-04T02:34:55;-0.10;65.40
27266;DHT22;14766;51.380;13.762;2023-12-04T02:37:24;-0.10;65.10
27266;DHT22;14766;51.380;13.762;2023-12-04T02:39:53;-0.20;65.10
27266;DHT22;14766;51.380;13.762;2023-12-04T02:42:22;-0.20;65.20
27266;DHT22;14766;51.380;13.762;2023-12-04T02:44:51;-0.30;65.20
27266;DHT22;14766;51.380;13.762;2023-12-04T02:47:19;-0.30;65.40
27266;DHT22;14766;51.380;13.762;2023-12-04T02:49:49;-0.40;65.70
27266;DHT22;14766;51.380;13.762;2023-12-04T02:52:16;-0.40;65.80
27266;DHT22;14766;51.380;13.762;2023-12-04T02:54:43;-0.40;66.00
27266;DHT22;14766;51.380;13.762;2023-12-04T02:57:10;-0.40;66.30
27266;DHT22;14766;51.380;13.762;2023-12-04T02:59:38;-0.40;66.40
27266;DHT22;14766;51.380;13.762;2023-12-04T03:02:05;-0.40;66.60
27266;DHT22;14766;51.380;13.762;2023-12-04T03:04:32;-0.40;66.70
27266;DHT22;14766;51.380;13.762;2023-12-04T03:07:00;-0.40;66.90
27266;DHT22;14766;51.380;13.762;2023-12-04T03:09:27;-0.40;67.10
27266;DHT22;14766;51.380;13.762;2023-12-04T03:12:14;-0.40;67.30
27266;DHT22;14766;51.380;13.762;2023-12-04T03:14:41;-0.30;67.60
27266;DHT22;14766;51.380;13.762;2023-12-04T03:17:08;-0.30;67.90
27266;DHT22;14766;51.380;13.762;2023-12-04T03:19:35;-0.30;68.10
27266;DHT22;14766;51.380;13.762;2023-12-04T03:22:03;-0.30;68.40
27266;DHT22;14766;51.380;13.762;2023-12-04T03:24:31;-0.20;69.30
27266;DHT22;14766;51.380;13.762;2023-12-04T03:26:58;-0.20;68.60
27266;DHT22;14766;51.380;13.762;2023-12-04T03:29:25;-0.10;68.90
27266;DHT22;14766;51.380;13.762;2023-12-04T03:31:52;-0.10;69.10
27266;DHT22;14766;51.380;13.762;2023-12-04T03:34:20;-0.10;69.20
27266;DHT22;14766;51.380;13.762;2023-12-04T03:36:47;-0.10;69.20
27266;DHT22;14766;51.380;13.762;2023-12-04T03:39:14;0.00;69.40
27266;DHT22;14766;51.380;13.762;2023-12-04T03:41:41;0.00;69.50
27266;DHT22;14766;51.380;13.762;2023-12-04T03:44:09;0.00;69.60
27266;DHT22;14766;51.380;13.762;2023-12-04T03:46:36;0.00;69.60
27266;DHT22;14766;51.380;13.762;2023-12-04T03:49:05;0.00;69.70
27266;DHT22;14766;51.380;13.762;2023-12-04T03:51:32;0.10;69.70
27266;DHT22;14766;51.380;13.762;2023-12-04T03:54:00;0.10;69.70
27266;DHT22;14766;51.380;13.762;2023-12-04T03:56:27;0.10;69.70
27266;DHT22;14766;51.380;13.762;2023-12-04T03:58:54;0.20;69.80
27266;DHT22;14766;51.380;13.762;2023-12-04T04:01:21;0.20;69.80
27266;DHT22;14766;51.380;13.762;2023-12-04T04:03:48;0.20;69.90
27266;DHT22;14766;51.380;13.762;2023-12-04T04:06:16;0.20;69.90
27266;DHT22;14766;51.380;13.762;2023-12-04T04:08:43;0.20;69.80
27266;DHT22;14766;51.380;13.762;2023-12-04T04:11:10;0.30;69.60
27266;DHT22;14766;51.380;13.762;2023-12-04T04:13:39;0.30;69.30
27266;DHT22;14766;51.380;13.762;2023-12-04T04:16:06;0.30;69.10
27266;DHT22;14766;51.380;13.762;2023-12-04T04:18:34;0.30;69.20
27266;DHT22;14766;51.380;13.762;2023-12-04T04:21:02;0.30;69.20
27266;DHT22;14766;51.380;13.762;2023-12-04T04:23:29;0.30;69.40
27266;DHT22;14766;51.380;13.762;2023-12-04T04:25:56;0.30;69.40
27266;DHT22;14766;51.380;13.762;2023-12-04T04:28:23;0.40;69.60
27266;DHT22;14766;51.380;13.762;2023-12-04T04:30:50;0.40;69.80
27266;DHT22;14766;51.380;13.762;2023-12-04T04:33:18;0.40;69.70
27266;DHT22;14766;51.380;13.762;2023-12-04T04:35:45;0.40;69.70
27266;DHT22;14766;51.380;13.762;2023-12-04T04:38:12;0.40;69.50
27266;DHT22;14766;51.380;13.762;2023-12-04T04:40:39;0.50;69.40
27266;DHT22;14766;51.380;13.762;2023-12-04T04:43:10;0.50;69.30
27266;DHT22;14766;51.380;13.762;2023-12-04T04:45:37;0.50;69.20
27266;DHT22;14766;51.380;13.762;2023-12-04T04:48:05;0.50;69.00
27266;DHT22;14766;51.380;13.762;2023-12-04T04:50:32;0.50;69.00
27266;DHT22;14766;51.380;13.762;2023-12-04T04:52:59;0.50;68.80
27266;DHT22;14766;51.380;13.762;2023-12-04T04:55:27;0.60;68.70
27266;DHT22;14766;51.380;13.762;2023-12-04T04:58:14;0.50;68.50
27266;DHT22;14766;51.380;13.762;2023-12-04T05:00:41;0.50;68.40
27266;DHT22;14766;51.380;13.762;2023-12-04T05:03:08;0.50;68.40
27266;DHT22;14766;51.380;13.762;2023-12-04T05:05:36;0.50;68.30
27266;DHT22;14766;51.380;13.762;2023-12-04T05:08:03;0.50;68.20
27266;DHT22;14766;51.380;13.762;2023-12-04T05:10:30;0.50;68.20
27266;DHT22;14766;51.380;13.762;2023-12-04T05:12:57;0.50;68.10
27266;DHT22;14766;51.380;13.762;2023-12-04T05:15:25;0.50;68.10
27266;DHT22;14766;51.380;13.762;2023-12-04T05:17:53;0.50;68.10
27266;DHT22;14766;51.380;13.762;2023-12-04T05:20:20;0.50;68.20
27266;DHT22;14766;51.380;13.762;2023-12-04T05:22:49;0.50;68.60
27266;DHT22;14766;51.380;13.762;2023-12-04T05:25:17;0.50;68.90
27266;DHT22;14766;51.380;13.762;2023-12-04T05:27:44;0.50;69.20
27266;DHT22;14766;51.380;13.762;2023-12-04T05:30:16;0.50;69.40
27266;DHT22;14766;51.380;13.762;2023-12-04T05:32:43;0.50;69.60
27266;DHT22;14766;51.380;13.762;2023-12-04T05:35:11;0.60;69.70
27266;DHT22;14766;51.380;13.762;2023-12-04T05:37:38;0.60;69.90
27266;DHT22;14766;51.380;13.762;2023-12-04T05:40:07;0.60;69.90
27266;DHT22;14766;51.380;13.762;2023-12-04T05:42:34;0.60;70.20
27266;DHT22;14766;51.380;13.762;2023-12-04T05:45:02;0.60;70.40
27266;DHT22;14766;51.380;13.762;2023-12-04T05:47:29;0.60;70.60
27266;DHT22;14766;51.380;13.762;2023-12-04T05:49:56;0.60;70.70
27266;DHT22;14766;51.380;13.762;2023-12-04T05:52:24;0.60;70.70
27266;DHT22;14766;51.380;13.762;2023-12-04T05:54:51;0.70;70.80
27266;DHT22;14766;51.380;13.762;2023-12-04T05:57:18;0.70;70.80
27266;DHT22;14766;51.380;13.762;2023-12-04T05:59:46;0.80;70.80
27266;DHT22;14766;51.380;13.762;2023-12-04T06:02:13;0.80;70.70
27266;DHT22;14766;51.380;13.762;2023-12-04T06:04:42;0.80;70.60
27266;DHT22;14766;51.380;13.762;2023-12-04T06:07:09;0.90;70.60
27266;DHT22;14766;51.380;13.762;2023-12-04T06:09:37;0.90;70.50
27266;DHT22;14766;51.380;13.762;2023-12-04T06:12:04;1.00;70.50
27266;DHT22;14766;51.380;13.762;2023-12-04T06:14:35;1.00;70.40
27266;DHT22;14766;51.380;13.762;2023-12-04T06:17:03;1.00;70.30
27266;DHT22;14766;51.380;13.762;2023-12-04T06:19:30;1.10;70.40
27266;DHT22;14766;51.380;13.762;2023-12-04T06:21:57;1.10;70.20
27266;DHT22;14766;51.380;13.762;2023-12-04T06:24:24;1.10;70.20
27266;DHT22;14766;51.380;13.762;2023-12-04T06:26:52;1.20;70.20
27266;DHT22;14766;51.380;13.762;2023-12-04T06:29:20;1.10;70.10
27266;DHT22;14766;51.380;13.762;2023-12-04T06:31:48;1.20;70.10
27266;DHT22;14766;51.380;13.762;2023-12-04T06:34:16;1.20;70.00
27266;DHT22;14766;51.380;13.762;2023-12-04T06:36:43;1.20;69.90
27266;DHT22;14766;51.380;13.762;2023-12-04T06:39:11;1.30;69.90
27266;DHT22;14766;51.380;13.762;2023-12-04T06:41:40;1.30;69.80
27266;DHT22;14766;51.380;13.762;2023-12-04T06:44:08;1.30;69.60
27266;DHT22;14766;51.380;13.762;2023-12-04T06:46:37;1.40;69.70
27266;DHT22;14766;51.380;13.762;2023-12-04T06:49:05;1.40;69.50
27266;DHT22;14766;51.380;13.762;2023-12-04T06:51:36;1.40;69.50
27266;DHT22;14766;51.380;13.762;2023-12-04T06:54:04;1.40;69.40
27266;DHT22;14766;51.380;13.762;2023-12-04T06:56:31;1.40;69.30
27266;DHT22;14766;51.380;13.762;2023-12-04T06:58:58;1.50;69.20
27266;DHT22;14766;51.380;13.762;2023-12-04T07:01:25;1.50;68.90
27266;DHT22;14766;51.380;13.762;2023-12-04T07:03:52;1.50;68.90
27266;DHT22;14766;51.380;13.762;2023-12-04T07:06:19;1.50;68.90
27266;DHT22;14766;51.380;13.762;2023-12-04T07:08:47;1.60;69.60
27266;DHT22;14766;51.380;13.762;2023-12-04T07:11:14;1.60;68.70
27266;DHT22;14766;51.380;13.762;2023-12-04T07:13:42;1.60;68.20
27266;DHT22;14766;51.380;13.762;2023-12-04T07:16:09;1.60;68.10
27266;DHT22;14766;51.380;13.762;2023-12-04T07:18:36;1.70;67.80
27266;DHT22;14766;51.380;13.762;2023-12-04T07:21:04;1.70;67.50
27266;DHT22;14766;51.380;13.762;2023-12-04T07:23:31;1.70;67.60
27266;DHT22;14766;51.380;13.762;2023-12-04T07:25:58;1.60;67.20
27266;DHT22;14766;51.380;13.762;2023-12-04T07:28:25;1.70;67.50
27266;DHT22;14766;51.380;13.762;2023-12-04T07:30:54;1.60;67.50
27266;DHT22;14766;51.380;13.762;2023-12-04T07:33:22;1.70;67.70
27266;DHT22;14766;51.380;13.762;2023-12-04T07:35:49;1.70;67.30
27266;DHT22;14766;51.380;13.762;2023-12-04T07:38:19;1.70;67.20
27266;DHT22;14766;51.380;13.762;2023-12-04T07:40:46;1.70;67.20
27266;DHT22;14766;51.380;13.762;2023-12-04T07:43:13;1.70;67.10
27266;DHT22;14766;51.380;13.762;2023-12-04T07:45:44;1.70;67.30
27266;DHT22;14766;51.380;13.762;2023-12-04T07:48:11;1.70;67.30
27266;DHT22;14766;51.380;13.762;2023-12-04T07:50:39;1.70;67.30
27266;DHT22;14766;51.380;13.762;2023-12-04T07:53:07;1.70;66.80
27266;DHT22;14766;51.380;13.762;2023-12-04T07:55:36;1.70;66.90
27266;DHT22;14766;51.380;13.762;2023-12-04T07:58:03;1.80;66.80
27266;DHT22;14766;51.380;13.762;2023-12-04T08:00:34;1.70;66.60
27266;DHT22;14766;51.380;13.762;2023-12-04T08:03:01;1.80;66.70
27266;DHT22;14766;51.380;13.762;2023-12-04T08:05:30;1.80;66.60
27266;DHT22;14766;51.380;13.762;2023-12-04T08:07:59;1.80;66.60
27266;DHT22;14766;51.380;13.762;2023-12-04T08:10:27;1.80;66.30
27266;DHT22;14766;51.380;13.762;2023-12-04T08:12:54;1.80;66.40
27266;DHT22;14766;51.380;13.762;2023-12-04T08:15:21;1.80;66.50
27266;DHT22;14766;51.380;13.762;2023-12-04T08:17:48;1.80;66.30
27266;DHT22;14766;51.380;13.762;2023-12-04T08:20:16;1.80;66.50
27266;DHT22;14766;51.380;13.762;2023-12-04T08:22:53;1.80;65.90
27266;DHT22;14766;51.380;13.762;2023-12-04T08:25:22;1.80;66.00
27266;DHT22;14766;51.380;13.762;2023-12-04T08:27:49;1.80;66.00
27266;DHT22;14766;51.380;13.762;2023-12-04T08:30:17;1.90;66.10
27266;DHT22;14766;51.380;13.762;2023-12-04T08:32:44;1.90;65.90
27266;DHT22;14766;51.380;13.762;2023-12-04T08:35:11;1.90;65.90
27266;DHT22;14766;51.380;13.762;2023-12-04T08:37:38;1.90;65.90
27266;DHT22;14766;51.380;13.762;2023-12-04T08:40:07;1.90;65.50
27266;DHT22;14766;51.380;13.762;2023-12-04T08:42:35;1.90;65.40
27266;DHT22;14766;51.380;13.762;2023-12-04T08:45:02;1.90;65.20
27266;DHT22;14766;51.380;13.762;2023-12-04T08:47:32;1.90;65.20
27266;DHT22;14766;51.380;13.762;2023-12-04T08:50:00;2.00;65.40
27266;DHT22;14766;51.380;13.762;2023-12-04T08:52:28;2.00;65.40
27266;DHT22;14766;51.380;13.762;2023-12-04T08:54:55;2.00;65.30
27266;DHT22;14766;51.380;13.762;2023-12-04T08:57:22;2.10;65.10
27266;DHT22;14766;51.380;13.762;2023-12-04T08:59:49;2.10;64.90
27266;DHT22;14766;51.380;13.762;2023-12-04T09:02:16;2.10;64.70
27266;DHT22;14766;51.380;13.762;2023-12-04T09:04:45;2.10;64.70
27266;DHT22;14766;51.380;13.762;2023-12-04T09:07:13;2.20;65.10
27266;DHT22;14766;51.380;13.762;2023-12-04T09:09:44;2.20;64.70
27266;DHT22;14766;51.380;13.762;2023-12-04T09:12:13;2.20;64.40
27266;DHT22;14766;51.380;13.762;2023-12-04T09:14:40;2.30;64.70
27266;DHT22;14766;51.380;13.762;2023-12-04T09:17:08;2.30;64.70
27266;DHT22;14766;51.380;13.762;2023-12-04T09:19:35;2.40;64.10
27266;DHT22;14766;51.380;13.762;2023-12-04T09:22:03;2.40;64.10
27266;DHT22;14766;51.380;13.762;2023-12-04T09:24:43;2.50;64.30
27266;DHT22;14766;51.380;13.762;2023-12-04T09:27:12;2.60;64.00
27266;DHT22;14766;51.380;13.762;2023-12-04T09:29:40;2.60;63.70
27266;DHT22;14766;51.380;13.762;2023-12-04T09:32:07;2.70;63.90
27266;DHT22;14766;51.380;13.762;2023-12-04T09:34:35;2.70;63.70
27266;DHT22;14766;51.380;13.762;2023-12-04T09:37:02;2.80;63.60
27266;DHT22;14766;51.380;13.762;2023-12-04T09:39:37;2.80;63.30
27266;DHT22;14766;51.380;13.762;2023-12-04T09:42:05;2.80;62.30
27266;DHT22;14766;51.380;13.762;2023-12-04T09:44:34;2.80;62.20
27266;DHT22;14766;51.380;13.762;2023-12-04T09:47:03;2.80;62.00
27266;DHT22;14766;51.380;13.762;2023-12-04T09:49:32;2.80;62.00
27266;DHT22;14766;51.380;13.762;2023-12-04T09:52:01;2.90;62.50
27266;DHT22;14766;51.380;13.762;2023-12-04T09:54:30;2.90;61.80
27266;DHT22;14766;51.380;13.762;2023-12-04T09:56:58;2.90;61.80
27266;DHT22;14766;51.380;13.762;2023-12-04T09:59:26;2.90;61.80
27266;DHT22;14766;51.380;13.762;2023-12-04T10:01:54;2.90;61.80
27266;DHT22;14766;51.380;13.762;2023-12-04T10:04:22;2.90;61.90
27266;DHT22;14766;51.380;13.762;2023-12-04T10:06:51;2.90;61.50
27266;DHT22;14766;51.380;13.762;2023-12-04T10:09:23;2.90;61.80
27266;DHT22;14766;51.380;13.762;2023-12-04T10:11:51;2.90;61.60
27266;DHT22;14766;51.380;13.762;2023-12-04T10:14:23;2.90;61.60
27266;DHT22;14766;51.380;13.762;2023-12-04T10:16:51;2.90;62.10
27266;DHT22;14766;51.380;13.762;2023-12-04T10:19:28;2.90;62.20
27266;DHT22;14766;51.380;13.762;2023-12-04T10:21:58;3.00;61.90
27266;DHT22;14766;51.380;13.762;2023-12-04T10:24:35;3.00;61.80
27266;DHT22;14766;51.380;13.762;2023-12-04T10:27:05;3.00;61.80
27266;DHT22;14766;51.380;13.762;2023-12-04T10:29:49;3.00;61.80
27266;DHT22;14766;51.380;13.762;2023-12-04T10:32:20;3.10;61.70
27266;DHT22;14766;51.380;13.762;2023-12-04T10:34:50;3.10;61.60
27266;DHT22;14766;51.380;13.762;2023-12-04T10:37:18;3.10;62.40
27266;DHT22;14766;51.380;13.762;2023-12-04T10:39:48;3.10;61.80
27266;DHT22;14766;51.380;13.762;2023-12-04T10:42:29;3.10;62.30
27266;DHT22;14766;51.380;13.762;2023-12-04T10:44:58;3.10;61.70
27266;DHT22;14766;51.380;13.762;2023-12-04T10:47:27;3.10;61.80
27266;DHT22;14766;51.380;13.762;2023-12-04T10:49:55;3.20;61.80
27266;DHT22;14766;51.380;13.762;2023-12-04T10:52:23;3.20;61.90
27266;DHT22;14766;51.380;13.762;2023-12-04T10:54:51;3.20;61.50
27266;DHT22;14766;51.380;13.762;2023-12-04T10:57:37;3.20;61.50
27266;DHT22;14766;51.380;13.762;2023-12-04T11:00:05;3.30;61.40
27266;DHT22;14766;51.380;13.762;2023-12-04T11:02:38;3.30;61.20
27266;DHT22;14766;51.380;13.762;2023-12-04T11:05:15;3.30;61.50
27266;DHT22;14766;51.380;13.762;2023-12-04T11:07:48;3.30;61.60
27266;DHT22;14766;51.380;13.762;2023-12-04T11:10:45;3.30;61.00
27266;DHT22;14766;51.380;13.762;2023-12-04T11:13:21;3.30;60.50
27266;DHT22;14766;51.380;13.762;2023-12-04T11:15:50;3.30;60.60
27266;DHT22;14766;51.380;13.762;2023-12-04T11:18:23;3.30;60.80
27266;DHT22;14766;51.380;13.762;2023-12-04T11:20:58;3.30;61.00
27266;DHT22;14766;51.380;13.762;2023-12-04T11:23:25;3.30;60.60
27266;DHT22;14766;51.380;13.762;2023-12-04T11:25:53;3.30;60.70
27266;DHT22;14766;51.380;13.762;2023-12-04T11:28:22;3.30;60.60
27266;DHT22;14766;51.380;13.762;2023-12-04T11:30:50;3.30;60.40
27266;DHT22;14766;51.380;13.762;2023-12-04T11:33:18;3.30;60.90
27266;DHT22;14766;51.380;13.762;2023-12-04T11:35:46;3.30;60.90
27266;DHT22;14766;51.380;13.762;2023-12-04T11:38:14;3.30;60.60
27266;DHT22;14766;51.380;13.762;2023-12-04T11:40:42;3.30;60.90
27266;DHT22;14766;51.380;13.762;2023-12-04T11:43:26;3.30;60.70
27266;DHT22;14766;51.380;13.762;2023-12-04T11:46:21;3.30;60.70
27266;DHT22;14766;51.380;13.762;2023-12-04T11:48:57;3.30;61.00
27266;DHT22;14766;51.380;13.762;2023-12-04T11:54:16;3.30;61.30
27266;DHT22;14766;51.380;13.762;2023-12-04T11:57:20;3.30;61.10
27266;DHT22;14766;51.380;13.762;2023-12-04T11:59:49;3.30;60.90
27266;DHT22;14766;51.380;13.762;2023-12-04T12:02:17;3.30;60.90
27266;DHT22;14766;51.380;13.762;2023-12-04T12:04:44;3.30;61.20
27266;DHT22;14766;51.380;13.762;2023-12-04T12:07:15;3.40;61.10
27266;DHT22;14766;51.380;13.762;2023-12-04T12:09:42;3.30;61.00
27266;DHT22;14766;51.380;13.762;2023-12-04T12:12:10;3.40;61.50
27266;DHT22;14766;51.380;13.762;2023-12-04T12:14:37;3.40;61.20
27266;DHT22;14766;51.380;13.762;2023-12-04T12:17:05;3.40;61.00
27266;DHT22;14766;51.380;13.762;2023-12-04T12:19:32;3.40;61.10
27266;DHT22;14766;51.380;13.762;2023-12-04T12:22:00;3.40;60.70
27266;DHT22;14766;51.380;13.762;2023-12-04T12:24:30;3.50;61.10
27266;DHT22;14766;51.380;13.762;2023-12-04T12:26:57;3.50;60.40
27266;DHT22;14766;51.380;13.762;2023-12-04T12:29:24;3.50;60.40
27266;DHT22;14766;51.380;13.762;2023-12-04T12:31:52;3.50;60.40
27266;DHT22;14766;51.380;13.762;2023-12-04T12:34:20;3.60;60.50
27266;DHT22;14766;51.380;13.762;2023-12-04T12:36:47;3.60;60.50
27266;DHT22;14766;51.380;13.762;2023-12-04T12:39:14;3.60;60.70
27266;DHT22;14766;51.380;13.762;2023-12-04T12:41:49;3.70;60.80
27266;DHT22;14766;51.380;13.762;2023-12-04T12:44:16;3.70;60.00
27266;DHT22;14766;51.380;13.762;2023-12-04T12:46:50;3.70;59.80
27266;DHT22;14766;51.380;13.762;2023-12-04T12:49:20;3.70;60.10
27266;DHT22;14766;51.380;13.762;2023-12-04T12:52:02;3.80;60.40
27266;DHT22;14766;51.380;13.762;2023-12-04T12:54:32;3.80;59.60
27266;DHT22;14766;51.380;13.762;2023-12-04T12:57:01;3.80;59.60
27266;DHT22;14766;51.380;13.762;2023-12-04T12:59:29;3.80;59.20
27266;DHT22;14766;51.380;13.762;2023-12-04T13:01:56;3.70;59.00
27266;DHT22;14766;51.380;13.762;2023-12-04T13:04:43;3.70;58.60
27266;DHT22;14766;51.380;13.762;2023-12-04T13:07:10;3.70;58.70
27266;DHT22;14766;51.380;13.762;2023-12-04T13:09:38;3.70;59.30
27266;DHT22;14766;51.380;13.762;2023-12-04T13:12:07;3.70;59.30
27266;DHT22;14766;51.380;13.762;2023-12-04T13:14:35;3.70;59.40
27266;DHT22;14766;51.380;13.762;2023-12-04T13:17:03;3.70;59.40
27266;DHT22;14766;51.380;13.762;2023-12-04T13:19:31;3.70;59.60
27266;DHT22;14766;51.380;13.762;2023-12-04T13:22:01;3.70;59.70
27266;DHT22;14766;51.380;13.762;2023-12-04T13:24:31;3.70;59.60
27266;DHT22;14766;51.380;13.762;2023-12-04T13:26:59;3.70;60.40
27266;DHT22;14766;51.380;13.762;2023-12-04T13:29:26;3.70;59.80
27266;DHT22;14766;51.380;13.762;2023-12-04T13:31:53;3.70;59.80
27266;DHT22;14766;51.380;13.762;2023-12-04T13:34:21;3.70;60.40
27266;DHT22;14766;51.380;13.762;2023-12-04T13:36:49;3.70;60.30
27266;DHT22;14766;51.380;13.762;2023-12-04T13:39:16;3.80;60.20
27266;DHT22;14766;51.380;13.762;2023-12-04T13:41:45;3.70;59.90
27266;DHT22;14766;51.380;13.762;2023-12-04T13:44:32;3.70;59.70
27266;DHT22;14766;51.380;13.762;2023-12-04T13:47:00;3.70;59.90
27266;DHT22;14766;51.380;13.762;2023-12-04T13:49:27;3.70;60.20
27266;DHT22;14766;51.380;13.762;2023-12-04T13:51:55;3.70;60.40
27266;DHT22;14766;51.380;13.762;2023-12-04T13:54:22;3.70;60.60
27266;DHT22;14766;51.380;13.762;2023-12-04T13:57:02;3.70;60.70
27266;DHT22;14766;51.380;13.762;2023-12-04T13:59:30;3.70;60.70
27266;DHT22;14766;51.380;13.762;2023-12-04T14:02:00;3.70;61.80
27266;DHT22;14766;51.380;13.762;2023-12-04T14:04:32;3.60;60.70
27266;DHT22;14766;51.380;13.762;2023-12-04T14:06:59;3.60;60.70
27266;DHT22;14766;51.380;13.762;2023-12-04T14:09:31;3.60;60.80
27266;DHT22;14766;51.380;13.762;2023-12-04T14:11:59;3.60;60.90
27266;DHT22;14766;51.380;13.762;2023-12-04T14:14:26;3.60;60.80
27266;DHT22;14766;51.380;13.762;2023-12-04T14:16:53;3.50;60.90
27266;DHT22;14766;51.380;13.762;2023-12-04T14:19:21;3.50;61.00
27266;DHT22;14766;51.380;13.762;2023-12-04T14:21:48;3.50;60.90
27266;DHT22;14766;51.380;13.762;2023-12-04T14:24:16;3.50;60.90
27266;DHT22;14766;51.380;13.762;2023-12-04T14:26:44;3.50;61.00
27266;DHT22;14766;51.380;13.762;2023-12-04T14:29:11;3.50;61.00
27266;DHT22;14766;51.380;13.762;2023-12-04T14:31:40;3.50;61.10
27266;DHT22;14766;51.380;13.762;2023-12-04T14:34:11;3.40;61.00
27266;DHT22;14766;51.380;13.762;2023-12-04T14:36:38;3.40;61.20
27266;DHT22;14766;51.380;13.762;2023-12-04T14:39:06;3.40;60.90
27266;DHT22;14766;51.380;13.762;2023-12-04T14:41:33;3.40;61.00
27266;DHT22;14766;51.380;13.762;2023-12-04T14:44:02;3.40;61.10
27266;DHT22;14766;51.380;13.762;2023-12-04T14:46:30;3.40;61.30
27266;DHT22;14766;51.380;13.762;2023-12-04T14:48:57;3.40;61.10
27266;DHT22;14766;51.380;13.762;2023-12-04T14:51:25;3.40;61.10
27266;DHT22;14766;51.380;13.762;2023-12-04T14:53:53;3.40;61.20
27266;DHT22;14766;51.380;13.762;2023-12-04T14:56:42;3.30;61.20
27266;DHT22;14766;51.380;13.762;2023-12-04T14:59:29;3.30;61.20
27266;DHT22;14766;51.380;13.762;2023-12-04T15:02:10;3.30;61.20
27266;DHT22;14766;51.380;13.762;2023-12-04T15:04:57;3.30;60.90
27266;DHT22;14766;51.380;13.762;2023-12-04T15:07:31;3.30;61.10
27266;DHT22;14766;51.380;13.762;2023-12-04T15:10:17;3.30;61.30
27266;DHT22;14766;51.380;13.762;2023-12-04T15:13:04;3.20;61.30
27266;DHT22;14766;51.380;13.762;2023-12-04T15:15:32;3.30;61.60
27266;DHT22;14766;51.380;13.762;2023-12-04T15:18:18;3.30;61.50
27266;DHT22;14766;51.380;13.762;2023-12-04T15:21:04;3.30;61.60
27266;DHT22;14766;51.380;13.762;2023-12-04T15:23:32;3.30;61.30
27266;DHT22;14766;51.380;13.762;2023-12-04T15:25:59;3.30;61.30
27266;DHT22;14766;51.380;13.762;2023-12-04T15:28:26;3.20;61.30
27266;DHT22;14766;51.380;13.762;2023-12-04T15:30:55;3.30;61.20
27266;DHT22;14766;51.380;13.762;2023-12-04T15:33:23;3.30;61.40
27266;DHT22;14766;51.380;13.762;2023-12-04T15:35:53;3.20;61.10
27266;DHT22;14766;51.380;13.762;2023-12-04T15:38:20;3.20;61.10
27266;DHT22;14766;51.380;13.762;2023-12-04T15:40:48;3.20;60.90
27266;DHT22;14766;51.380;13.762;2023-12-04T15:43:16;3.20;60.80
27266;DHT22;14766;51.380;13.762;2023-12-04T15:45:43;3.20;60.90